<?xml version="1.0" encoding="UTF-8" standalone="no" ?>
<gpx xmlns="http://www.topografix.com/GPX/1/1" xmlns:xsi="http://www.w3.org/2001/XMLSchema-instance" xsi:schemaLocation="http://www.topografix.com/GPX/1/1 http://www.topografix.com/GPX/1/1/gpx.xsd" version="1.1" creator="VisuGPX - https://www.visugpx.com">
  <metadata>
    <name>Vacances 2021</name>
  </metadata>
  <trk>
    <name><![CDATA[Journal actif: 2021-07-21 14:44]]></name>
    <trkseg>
      <trkpt lat="49.05409" lon="7.43439">
        <ele>250.08</ele>
        <time>2021-07-21T16:44:00Z</time>
      </trkpt>
      <trkpt lat="49.05409" lon="7.43447">
        <ele>297.18</ele>
        <time>2021-07-21T16:44:25Z</time>
      </trkpt>
      <trkpt lat="49.05413" lon="7.43447">
        <ele>312.09</ele>
        <time>2021-07-21T16:45:20Z</time>
      </trkpt>
      <trkpt lat="49.05413" lon="7.43447">
        <ele>311.6</ele>
        <time>2021-07-21T16:47:19Z</time>
      </trkpt>
      <trkpt lat="49.05425" lon="7.43449">
        <ele>312.09</ele>
        <time>2021-07-21T16:47:43Z</time>
      </trkpt>
      <trkpt lat="49.05459" lon="7.43411">
        <ele>314.97</ele>
        <time>2021-07-21T16:48:04Z</time>
      </trkpt>
      <trkpt lat="49.05455" lon="7.43379">
        <ele>317.85</ele>
        <time>2021-07-21T16:48:16Z</time>
      </trkpt>
      <trkpt lat="49.05448" lon="7.43371">
        <ele>317.85</ele>
        <time>2021-07-21T16:48:21Z</time>
      </trkpt>
      <trkpt lat="49.05442" lon="7.43384">
        <ele>317.37</ele>
        <time>2021-07-21T16:48:29Z</time>
      </trkpt>
      <trkpt lat="49.05441" lon="7.43387">
        <ele>316.89</ele>
        <time>2021-07-21T16:48:30Z</time>
      </trkpt>
      <trkpt lat="49.05439" lon="7.4339">
        <ele>316.89</ele>
        <time>2021-07-21T16:48:31Z</time>
      </trkpt>
      <trkpt lat="49.05402" lon="7.43433">
        <ele>312.57</ele>
        <time>2021-07-21T16:48:49Z</time>
      </trkpt>
      <trkpt lat="49.05361" lon="7.4346">
        <ele>308.72</ele>
        <time>2021-07-21T16:49:03Z</time>
      </trkpt>
      <trkpt lat="49.05356" lon="7.43461">
        <ele>308.72</ele>
        <time>2021-07-21T16:49:04Z</time>
      </trkpt>
      <trkpt lat="49.05351" lon="7.4346">
        <ele>308.72</ele>
        <time>2021-07-21T16:49:05Z</time>
      </trkpt>
      <trkpt lat="49.05346" lon="7.4346">
        <ele>308.24</ele>
        <time>2021-07-21T16:49:06Z</time>
      </trkpt>
      <trkpt lat="49.05341" lon="7.43459">
        <ele>308.24</ele>
        <time>2021-07-21T16:49:07Z</time>
      </trkpt>
      <trkpt lat="49.05336" lon="7.43456">
        <ele>308.24</ele>
        <time>2021-07-21T16:49:08Z</time>
      </trkpt>
      <trkpt lat="49.05322" lon="7.43446">
        <ele>307.76</ele>
        <time>2021-07-21T16:49:11Z</time>
      </trkpt>
      <trkpt lat="49.05318" lon="7.43441">
        <ele>307.28</ele>
        <time>2021-07-21T16:49:12Z</time>
      </trkpt>
      <trkpt lat="49.05246" lon="7.4335">
        <ele>306.32</ele>
        <time>2021-07-21T16:49:29Z</time>
      </trkpt>
      <trkpt lat="49.05228" lon="7.43339">
        <ele>306.8</ele>
        <time>2021-07-21T16:49:39Z</time>
      </trkpt>
      <trkpt lat="49.05211" lon="7.43323">
        <ele>306.8</ele>
        <time>2021-07-21T16:49:47Z</time>
      </trkpt>
      <trkpt lat="49.05209" lon="7.43318">
        <ele>306.8</ele>
        <time>2021-07-21T16:49:48Z</time>
      </trkpt>
      <trkpt lat="49.05162" lon="7.4321">
        <ele>307.28</ele>
        <time>2021-07-21T16:50:04Z</time>
      </trkpt>
      <trkpt lat="49.05102" lon="7.4308">
        <ele>305.84</ele>
        <time>2021-07-21T16:50:24Z</time>
      </trkpt>
      <trkpt lat="49.05045" lon="7.42957">
        <ele>303.43</ele>
        <time>2021-07-21T16:50:41Z</time>
      </trkpt>
      <trkpt lat="49.05026" lon="7.42925">
        <ele>302.47</ele>
        <time>2021-07-21T16:50:50Z</time>
      </trkpt>
      <trkpt lat="49.05023" lon="7.42927">
        <ele>302.47</ele>
        <time>2021-07-21T16:50:51Z</time>
      </trkpt>
      <trkpt lat="49.05019" lon="7.42929">
        <ele>302.47</ele>
        <time>2021-07-21T16:50:52Z</time>
      </trkpt>
      <trkpt lat="49.04971" lon="7.42947">
        <ele>298.63</ele>
        <time>2021-07-21T16:51:05Z</time>
      </trkpt>
      <trkpt lat="49.04966" lon="7.42941">
        <ele>298.15</ele>
        <time>2021-07-21T16:51:08Z</time>
      </trkpt>
      <trkpt lat="49.04962" lon="7.42938">
        <ele>297.67</ele>
        <time>2021-07-21T16:51:09Z</time>
      </trkpt>
      <trkpt lat="49.04962" lon="7.42938">
        <ele>297.67</ele>
        <time>2021-07-21T16:51:10Z</time>
      </trkpt>
      <trkpt lat="49.04963" lon="7.42935">
        <ele>297.18</ele>
        <time>2021-07-21T16:51:11Z</time>
      </trkpt>
      <trkpt lat="49.04964" lon="7.42929">
        <ele>297.18</ele>
        <time>2021-07-21T16:51:12Z</time>
      </trkpt>
      <trkpt lat="49.04967" lon="7.42917">
        <ele>297.18</ele>
        <time>2021-07-21T16:51:14Z</time>
      </trkpt>
      <trkpt lat="49.04968" lon="7.4291">
        <ele>296.7</ele>
        <time>2021-07-21T16:51:15Z</time>
      </trkpt>
      <trkpt lat="49.04968" lon="7.42905">
        <ele>296.7</ele>
        <time>2021-07-21T16:51:16Z</time>
      </trkpt>
      <trkpt lat="49.04967" lon="7.42899">
        <ele>296.22</ele>
        <time>2021-07-21T16:51:17Z</time>
      </trkpt>
      <trkpt lat="49.04965" lon="7.42892">
        <ele>296.22</ele>
        <time>2021-07-21T16:51:18Z</time>
      </trkpt>
      <trkpt lat="49.04964" lon="7.42885">
        <ele>295.74</ele>
        <time>2021-07-21T16:51:19Z</time>
      </trkpt>
      <trkpt lat="49.04963" lon="7.42878">
        <ele>295.26</ele>
        <time>2021-07-21T16:51:20Z</time>
      </trkpt>
      <trkpt lat="49.04961" lon="7.42873">
        <ele>295.26</ele>
        <time>2021-07-21T16:51:21Z</time>
      </trkpt>
      <trkpt lat="49.04956" lon="7.4287">
        <ele>294.78</ele>
        <time>2021-07-21T16:51:22Z</time>
      </trkpt>
      <trkpt lat="49.04951" lon="7.42867">
        <ele>294.3</ele>
        <time>2021-07-21T16:51:23Z</time>
      </trkpt>
      <trkpt lat="49.04945" lon="7.42864">
        <ele>294.3</ele>
        <time>2021-07-21T16:51:24Z</time>
      </trkpt>
      <trkpt lat="49.04905" lon="7.42844">
        <ele>291.9</ele>
        <time>2021-07-21T16:51:30Z</time>
      </trkpt>
      <trkpt lat="49.04898" lon="7.42837">
        <ele>291.42</ele>
        <time>2021-07-21T16:51:31Z</time>
      </trkpt>
      <trkpt lat="49.04891" lon="7.4283">
        <ele>291.42</ele>
        <time>2021-07-21T16:51:32Z</time>
      </trkpt>
      <trkpt lat="49.04787" lon="7.42691">
        <ele>291.42</ele>
        <time>2021-07-21T16:51:45Z</time>
      </trkpt>
      <trkpt lat="49.04752" lon="7.42644">
        <ele>293.82</ele>
        <time>2021-07-21T16:51:51Z</time>
      </trkpt>
      <trkpt lat="49.04748" lon="7.4264">
        <ele>293.82</ele>
        <time>2021-07-21T16:51:52Z</time>
      </trkpt>
      <trkpt lat="49.04744" lon="7.42636">
        <ele>294.3</ele>
        <time>2021-07-21T16:51:53Z</time>
      </trkpt>
      <trkpt lat="49.04742" lon="7.42635">
        <ele>294.3</ele>
        <time>2021-07-21T16:51:54Z</time>
      </trkpt>
      <trkpt lat="49.04737" lon="7.42634">
        <ele>294.3</ele>
        <time>2021-07-21T16:51:55Z</time>
      </trkpt>
      <trkpt lat="49.04731" lon="7.42634">
        <ele>294.78</ele>
        <time>2021-07-21T16:51:56Z</time>
      </trkpt>
      <trkpt lat="49.04724" lon="7.42633">
        <ele>294.78</ele>
        <time>2021-07-21T16:51:57Z</time>
      </trkpt>
      <trkpt lat="49.04718" lon="7.42633">
        <ele>295.26</ele>
        <time>2021-07-21T16:51:58Z</time>
      </trkpt>
      <trkpt lat="49.04615" lon="7.42664">
        <ele>299.59</ele>
        <time>2021-07-21T16:52:09Z</time>
      </trkpt>
      <trkpt lat="49.04485" lon="7.42717">
        <ele>299.59</ele>
        <time>2021-07-21T16:52:20Z</time>
      </trkpt>
      <trkpt lat="49.04276" lon="7.42818">
        <ele>304.88</ele>
        <time>2021-07-21T16:52:37Z</time>
      </trkpt>
      <trkpt lat="49.04164" lon="7.42866">
        <ele>306.32</ele>
        <time>2021-07-21T16:52:46Z</time>
      </trkpt>
      <trkpt lat="49.04152" lon="7.42868">
        <ele>306.8</ele>
        <time>2021-07-21T16:52:47Z</time>
      </trkpt>
      <trkpt lat="49.04139" lon="7.42871">
        <ele>307.76</ele>
        <time>2021-07-21T16:52:48Z</time>
      </trkpt>
      <trkpt lat="49.04127" lon="7.42867">
        <ele>307.76</ele>
        <time>2021-07-21T16:52:49Z</time>
      </trkpt>
      <trkpt lat="49.04116" lon="7.42862">
        <ele>309.2</ele>
        <time>2021-07-21T16:52:50Z</time>
      </trkpt>
      <trkpt lat="49.04106" lon="7.42858">
        <ele>309.68</ele>
        <time>2021-07-21T16:52:51Z</time>
      </trkpt>
      <trkpt lat="49.04094" lon="7.4285">
        <ele>310.16</ele>
        <time>2021-07-21T16:52:52Z</time>
      </trkpt>
      <trkpt lat="49.04082" lon="7.42841">
        <ele>309.2</ele>
        <time>2021-07-21T16:52:53Z</time>
      </trkpt>
      <trkpt lat="49.04071" lon="7.42826">
        <ele>307.76</ele>
        <time>2021-07-21T16:52:54Z</time>
      </trkpt>
      <trkpt lat="49.0393" lon="7.42619">
        <ele>312.57</ele>
        <time>2021-07-21T16:53:07Z</time>
      </trkpt>
      <trkpt lat="49.0374" lon="7.42333">
        <ele>321.7</ele>
        <time>2021-07-21T16:53:26Z</time>
      </trkpt>
      <trkpt lat="49.03579" lon="7.42098">
        <ele>333.23</ele>
        <time>2021-07-21T16:53:42Z</time>
      </trkpt>
      <trkpt lat="49.03497" lon="7.41991">
        <ele>332.27</ele>
        <time>2021-07-21T16:53:50Z</time>
      </trkpt>
      <trkpt lat="49.03477" lon="7.41963">
        <ele>331.31</ele>
        <time>2021-07-21T16:53:52Z</time>
      </trkpt>
      <trkpt lat="49.03469" lon="7.41946">
        <ele>330.35</ele>
        <time>2021-07-21T16:53:53Z</time>
      </trkpt>
      <trkpt lat="49.03462" lon="7.41928">
        <ele>328.91</ele>
        <time>2021-07-21T16:53:54Z</time>
      </trkpt>
      <trkpt lat="49.03454" lon="7.4191">
        <ele>328.91</ele>
        <time>2021-07-21T16:53:55Z</time>
      </trkpt>
      <trkpt lat="49.03448" lon="7.41891">
        <ele>327.95</ele>
        <time>2021-07-21T16:53:56Z</time>
      </trkpt>
      <trkpt lat="49.03444" lon="7.41868">
        <ele>326.99</ele>
        <time>2021-07-21T16:53:57Z</time>
      </trkpt>
      <trkpt lat="49.03442" lon="7.41846">
        <ele>325.54</ele>
        <time>2021-07-21T16:53:58Z</time>
      </trkpt>
      <trkpt lat="49.03442" lon="7.41822">
        <ele>323.62</ele>
        <time>2021-07-21T16:53:59Z</time>
      </trkpt>
      <trkpt lat="49.03441" lon="7.41795">
        <ele>323.62</ele>
        <time>2021-07-21T16:54:00Z</time>
      </trkpt>
      <trkpt lat="49.03449" lon="7.41742">
        <ele>321.7</ele>
        <time>2021-07-21T16:54:01Z</time>
      </trkpt>
      <trkpt lat="49.03449" lon="7.41742">
        <ele>320.26</ele>
        <time>2021-07-21T16:54:02Z</time>
      </trkpt>
      <trkpt lat="49.03468" lon="7.41617">
        <ele>316.41</ele>
        <time>2021-07-21T16:54:07Z</time>
      </trkpt>
      <trkpt lat="49.03471" lon="7.41595">
        <ele>314.97</ele>
        <time>2021-07-21T16:54:08Z</time>
      </trkpt>
      <trkpt lat="49.03469" lon="7.41544">
        <ele>314.97</ele>
        <time>2021-07-21T16:54:09Z</time>
      </trkpt>
      <trkpt lat="49.03469" lon="7.41544">
        <ele>313.05</ele>
        <time>2021-07-21T16:54:10Z</time>
      </trkpt>
      <trkpt lat="49.03465" lon="7.41519">
        <ele>311.12</ele>
        <time>2021-07-21T16:54:11Z</time>
      </trkpt>
      <trkpt lat="49.03451" lon="7.41474">
        <ele>310.16</ele>
        <time>2021-07-21T16:54:12Z</time>
      </trkpt>
      <trkpt lat="49.03451" lon="7.41474">
        <ele>308.72</ele>
        <time>2021-07-21T16:54:13Z</time>
      </trkpt>
      <trkpt lat="49.03413" lon="7.41353">
        <ele>304.39</ele>
        <time>2021-07-21T16:54:19Z</time>
      </trkpt>
      <trkpt lat="49.03408" lon="7.41319">
        <ele>302.47</ele>
        <time>2021-07-21T16:54:20Z</time>
      </trkpt>
      <trkpt lat="49.03408" lon="7.41319">
        <ele>302.47</ele>
        <time>2021-07-21T16:54:21Z</time>
      </trkpt>
      <trkpt lat="49.03407" lon="7.41303">
        <ele>302.47</ele>
        <time>2021-07-21T16:54:22Z</time>
      </trkpt>
      <trkpt lat="49.03408" lon="7.41286">
        <ele>301.51</ele>
        <time>2021-07-21T16:54:23Z</time>
      </trkpt>
      <trkpt lat="49.03413" lon="7.41269">
        <ele>300.55</ele>
        <time>2021-07-21T16:54:24Z</time>
      </trkpt>
      <trkpt lat="49.03419" lon="7.41252">
        <ele>301.03</ele>
        <time>2021-07-21T16:54:25Z</time>
      </trkpt>
      <trkpt lat="49.03424" lon="7.41234">
        <ele>300.07</ele>
        <time>2021-07-21T16:54:26Z</time>
      </trkpt>
      <trkpt lat="49.03433" lon="7.41218">
        <ele>300.07</ele>
        <time>2021-07-21T16:54:27Z</time>
      </trkpt>
      <trkpt lat="49.03454" lon="7.41166">
        <ele>300.55</ele>
        <time>2021-07-21T16:54:30Z</time>
      </trkpt>
      <trkpt lat="49.03461" lon="7.41128">
        <ele>299.11</ele>
        <time>2021-07-21T16:54:31Z</time>
      </trkpt>
      <trkpt lat="49.03463" lon="7.41107">
        <ele>299.11</ele>
        <time>2021-07-21T16:54:32Z</time>
      </trkpt>
      <trkpt lat="49.03463" lon="7.41107">
        <ele>299.59</ele>
        <time>2021-07-21T16:54:33Z</time>
      </trkpt>
      <trkpt lat="49.03464" lon="7.41086">
        <ele>300.07</ele>
        <time>2021-07-21T16:54:34Z</time>
      </trkpt>
      <trkpt lat="49.03452" lon="7.40882">
        <ele>296.7</ele>
        <time>2021-07-21T16:54:43Z</time>
      </trkpt>
      <trkpt lat="49.03454" lon="7.40807">
        <ele>294.78</ele>
        <time>2021-07-21T16:54:49Z</time>
      </trkpt>
      <trkpt lat="49.03462" lon="7.40704">
        <ele>295.26</ele>
        <time>2021-07-21T16:54:59Z</time>
      </trkpt>
      <trkpt lat="49.03491" lon="7.40554">
        <ele>296.22</ele>
        <time>2021-07-21T16:55:08Z</time>
      </trkpt>
      <trkpt lat="49.03562" lon="7.40404">
        <ele>290.94</ele>
        <time>2021-07-21T16:55:16Z</time>
      </trkpt>
      <trkpt lat="49.03625" lon="7.403">
        <ele>288.53</ele>
        <time>2021-07-21T16:55:23Z</time>
      </trkpt>
      <trkpt lat="49.0365" lon="7.40252">
        <ele>287.57</ele>
        <time>2021-07-21T16:55:30Z</time>
      </trkpt>
      <trkpt lat="49.03689" lon="7.40179">
        <ele>287.09</ele>
        <time>2021-07-21T16:55:38Z</time>
      </trkpt>
      <trkpt lat="49.03764" lon="7.40049">
        <ele>287.09</ele>
        <time>2021-07-21T16:55:47Z</time>
      </trkpt>
      <trkpt lat="49.03774" lon="7.40035">
        <ele>286.61</ele>
        <time>2021-07-21T16:55:48Z</time>
      </trkpt>
      <trkpt lat="49.03784" lon="7.40025">
        <ele>286.61</ele>
        <time>2021-07-21T16:55:49Z</time>
      </trkpt>
      <trkpt lat="49.03795" lon="7.40015">
        <ele>285.65</ele>
        <time>2021-07-21T16:55:50Z</time>
      </trkpt>
      <trkpt lat="49.03899" lon="7.39934">
        <ele>287.09</ele>
        <time>2021-07-21T16:55:59Z</time>
      </trkpt>
      <trkpt lat="49.03909" lon="7.39923">
        <ele>288.05</ele>
        <time>2021-07-21T16:56:00Z</time>
      </trkpt>
      <trkpt lat="49.03918" lon="7.39912">
        <ele>288.05</ele>
        <time>2021-07-21T16:56:01Z</time>
      </trkpt>
      <trkpt lat="49.03926" lon="7.39895">
        <ele>288.53</ele>
        <time>2021-07-21T16:56:02Z</time>
      </trkpt>
      <trkpt lat="49.03933" lon="7.39879">
        <ele>288.05</ele>
        <time>2021-07-21T16:56:03Z</time>
      </trkpt>
      <trkpt lat="49.0394" lon="7.39863">
        <ele>287.09</ele>
        <time>2021-07-21T16:56:04Z</time>
      </trkpt>
      <trkpt lat="49.03988" lon="7.3974">
        <ele>284.21</ele>
        <time>2021-07-21T16:56:11Z</time>
      </trkpt>
      <trkpt lat="49.04052" lon="7.3959">
        <ele>286.61</ele>
        <time>2021-07-21T16:56:19Z</time>
      </trkpt>
      <trkpt lat="49.04113" lon="7.3941">
        <ele>287.09</ele>
        <time>2021-07-21T16:56:30Z</time>
      </trkpt>
      <trkpt lat="49.04154" lon="7.39254">
        <ele>286.61</ele>
        <time>2021-07-21T16:56:38Z</time>
      </trkpt>
      <trkpt lat="49.04168" lon="7.39013">
        <ele>285.17</ele>
        <time>2021-07-21T16:56:50Z</time>
      </trkpt>
      <trkpt lat="49.04208" lon="7.38776">
        <ele>287.09</ele>
        <time>2021-07-21T16:57:02Z</time>
      </trkpt>
      <trkpt lat="49.04244" lon="7.3866">
        <ele>285.17</ele>
        <time>2021-07-21T16:57:10Z</time>
      </trkpt>
      <trkpt lat="49.04282" lon="7.38524">
        <ele>283.73</ele>
        <time>2021-07-21T16:57:21Z</time>
      </trkpt>
      <trkpt lat="49.04332" lon="7.38326">
        <ele>283.25</ele>
        <time>2021-07-21T16:57:31Z</time>
      </trkpt>
      <trkpt lat="49.0436" lon="7.38144">
        <ele>283.25</ele>
        <time>2021-07-21T16:57:39Z</time>
      </trkpt>
      <trkpt lat="49.04404" lon="7.37896">
        <ele>283.25</ele>
        <time>2021-07-21T16:57:49Z</time>
      </trkpt>
      <trkpt lat="49.04501" lon="7.3765">
        <ele>282.77</ele>
        <time>2021-07-21T16:57:59Z</time>
      </trkpt>
      <trkpt lat="49.04546" lon="7.37552">
        <ele>281.8</ele>
        <time>2021-07-21T16:58:05Z</time>
      </trkpt>
      <trkpt lat="49.04552" lon="7.37529">
        <ele>282.28</ele>
        <time>2021-07-21T16:58:06Z</time>
      </trkpt>
      <trkpt lat="49.04558" lon="7.37507">
        <ele>282.28</ele>
        <time>2021-07-21T16:58:07Z</time>
      </trkpt>
      <trkpt lat="49.04587" lon="7.37225">
        <ele>282.28</ele>
        <time>2021-07-21T16:58:18Z</time>
      </trkpt>
      <trkpt lat="49.04629" lon="7.36766">
        <ele>283.73</ele>
        <time>2021-07-21T16:58:34Z</time>
      </trkpt>
      <trkpt lat="49.04669" lon="7.36469">
        <ele>283.25</ele>
        <time>2021-07-21T16:58:44Z</time>
      </trkpt>
      <trkpt lat="49.04658" lon="7.36184">
        <ele>282.77</ele>
        <time>2021-07-21T16:58:54Z</time>
      </trkpt>
      <trkpt lat="49.04616" lon="7.35876">
        <ele>282.28</ele>
        <time>2021-07-21T16:59:05Z</time>
      </trkpt>
      <trkpt lat="49.04613" lon="7.35514">
        <ele>283.25</ele>
        <time>2021-07-21T16:59:17Z</time>
      </trkpt>
      <trkpt lat="49.04623" lon="7.354">
        <ele>286.13</ele>
        <time>2021-07-21T16:59:21Z</time>
      </trkpt>
      <trkpt lat="49.04627" lon="7.35376">
        <ele>289.01</ele>
        <time>2021-07-21T16:59:22Z</time>
      </trkpt>
      <trkpt lat="49.04657" lon="7.35255">
        <ele>289.97</ele>
        <time>2021-07-21T16:59:29Z</time>
      </trkpt>
      <trkpt lat="49.0466" lon="7.35156">
        <ele>288.05</ele>
        <time>2021-07-21T16:59:35Z</time>
      </trkpt>
      <trkpt lat="49.04658" lon="7.35137">
        <ele>288.05</ele>
        <time>2021-07-21T16:59:36Z</time>
      </trkpt>
      <trkpt lat="49.04589" lon="7.34859">
        <ele>284.21</ele>
        <time>2021-07-21T16:59:49Z</time>
      </trkpt>
      <trkpt lat="49.04575" lon="7.348">
        <ele>284.21</ele>
        <time>2021-07-21T16:59:53Z</time>
      </trkpt>
      <trkpt lat="49.04572" lon="7.34782">
        <ele>285.65</ele>
        <time>2021-07-21T16:59:54Z</time>
      </trkpt>
      <trkpt lat="49.04572" lon="7.34761">
        <ele>284.69</ele>
        <time>2021-07-21T16:59:55Z</time>
      </trkpt>
      <trkpt lat="49.04572" lon="7.34742">
        <ele>284.69</ele>
        <time>2021-07-21T16:59:56Z</time>
      </trkpt>
      <trkpt lat="49.04572" lon="7.34723">
        <ele>284.69</ele>
        <time>2021-07-21T16:59:57Z</time>
      </trkpt>
      <trkpt lat="49.04575" lon="7.34603">
        <ele>284.21</ele>
        <time>2021-07-21T17:00:04Z</time>
      </trkpt>
      <trkpt lat="49.04563" lon="7.34482">
        <ele>281.32</ele>
        <time>2021-07-21T17:00:12Z</time>
      </trkpt>
      <trkpt lat="49.04563" lon="7.34464">
        <ele>280.36</ele>
        <time>2021-07-21T17:00:13Z</time>
      </trkpt>
      <trkpt lat="49.04564" lon="7.34445">
        <ele>280.36</ele>
        <time>2021-07-21T17:00:14Z</time>
      </trkpt>
      <trkpt lat="49.04568" lon="7.34425">
        <ele>280.36</ele>
        <time>2021-07-21T17:00:15Z</time>
      </trkpt>
      <trkpt lat="49.04574" lon="7.3441">
        <ele>281.32</ele>
        <time>2021-07-21T17:00:16Z</time>
      </trkpt>
      <trkpt lat="49.04581" lon="7.34394">
        <ele>281.8</ele>
        <time>2021-07-21T17:00:17Z</time>
      </trkpt>
      <trkpt lat="49.0459" lon="7.3438">
        <ele>281.32</ele>
        <time>2021-07-21T17:00:18Z</time>
      </trkpt>
      <trkpt lat="49.04598" lon="7.3437">
        <ele>281.8</ele>
        <time>2021-07-21T17:00:19Z</time>
      </trkpt>
      <trkpt lat="49.04608" lon="7.34362">
        <ele>280.84</ele>
        <time>2021-07-21T17:00:20Z</time>
      </trkpt>
      <trkpt lat="49.04617" lon="7.34356">
        <ele>280.84</ele>
        <time>2021-07-21T17:00:21Z</time>
      </trkpt>
      <trkpt lat="49.04626" lon="7.34352">
        <ele>280.36</ele>
        <time>2021-07-21T17:00:22Z</time>
      </trkpt>
      <trkpt lat="49.04639" lon="7.3435">
        <ele>280.84</ele>
        <time>2021-07-21T17:00:23Z</time>
      </trkpt>
      <trkpt lat="49.04652" lon="7.34349">
        <ele>281.32</ele>
        <time>2021-07-21T17:00:24Z</time>
      </trkpt>
      <trkpt lat="49.04795" lon="7.34313">
        <ele>277.48</ele>
        <time>2021-07-21T17:00:32Z</time>
      </trkpt>
      <trkpt lat="49.04915" lon="7.34245">
        <ele>273.15</ele>
        <time>2021-07-21T17:00:41Z</time>
      </trkpt>
      <trkpt lat="49.04929" lon="7.34231">
        <ele>272.19</ele>
        <time>2021-07-21T17:00:42Z</time>
      </trkpt>
      <trkpt lat="49.04954" lon="7.34201">
        <ele>272.19</ele>
        <time>2021-07-21T17:00:43Z</time>
      </trkpt>
      <trkpt lat="49.04954" lon="7.34201">
        <ele>272.67</ele>
        <time>2021-07-21T17:00:44Z</time>
      </trkpt>
      <trkpt lat="49.04973" lon="7.34167">
        <ele>272.19</ele>
        <time>2021-07-21T17:00:45Z</time>
      </trkpt>
      <trkpt lat="49.04973" lon="7.34167">
        <ele>272.19</ele>
        <time>2021-07-21T17:00:46Z</time>
      </trkpt>
      <trkpt lat="49.04991" lon="7.34122">
        <ele>272.67</ele>
        <time>2021-07-21T17:00:47Z</time>
      </trkpt>
      <trkpt lat="49.04991" lon="7.34122">
        <ele>272.19</ele>
        <time>2021-07-21T17:00:48Z</time>
      </trkpt>
      <trkpt lat="49.04998" lon="7.341">
        <ele>272.19</ele>
        <time>2021-07-21T17:00:49Z</time>
      </trkpt>
      <trkpt lat="49.05005" lon="7.34076">
        <ele>272.67</ele>
        <time>2021-07-21T17:00:50Z</time>
      </trkpt>
      <trkpt lat="49.0504" lon="7.33893">
        <ele>277.48</ele>
        <time>2021-07-21T17:00:58Z</time>
      </trkpt>
      <trkpt lat="49.05045" lon="7.33873">
        <ele>278.44</ele>
        <time>2021-07-21T17:00:59Z</time>
      </trkpt>
      <trkpt lat="49.05054" lon="7.33855">
        <ele>278.92</ele>
        <time>2021-07-21T17:01:00Z</time>
      </trkpt>
      <trkpt lat="49.05064" lon="7.33838">
        <ele>278.92</ele>
        <time>2021-07-21T17:01:01Z</time>
      </trkpt>
      <trkpt lat="49.05076" lon="7.33827">
        <ele>278.44</ele>
        <time>2021-07-21T17:01:02Z</time>
      </trkpt>
      <trkpt lat="49.05089" lon="7.33819">
        <ele>277.96</ele>
        <time>2021-07-21T17:01:03Z</time>
      </trkpt>
      <trkpt lat="49.05103" lon="7.33814">
        <ele>277</ele>
        <time>2021-07-21T17:01:04Z</time>
      </trkpt>
      <trkpt lat="49.05117" lon="7.3381">
        <ele>276.52</ele>
        <time>2021-07-21T17:01:05Z</time>
      </trkpt>
      <trkpt lat="49.05131" lon="7.33813">
        <ele>277.48</ele>
        <time>2021-07-21T17:01:06Z</time>
      </trkpt>
      <trkpt lat="49.05163" lon="7.33824">
        <ele>277.96</ele>
        <time>2021-07-21T17:01:07Z</time>
      </trkpt>
      <trkpt lat="49.05163" lon="7.33824">
        <ele>278.44</ele>
        <time>2021-07-21T17:01:08Z</time>
      </trkpt>
      <trkpt lat="49.05261" lon="7.33867">
        <ele>272.19</ele>
        <time>2021-07-21T17:01:16Z</time>
      </trkpt>
      <trkpt lat="49.05327" lon="7.33888">
        <ele>268.83</ele>
        <time>2021-07-21T17:01:24Z</time>
      </trkpt>
      <trkpt lat="49.0536" lon="7.33919">
        <ele>269.79</ele>
        <time>2021-07-21T17:01:35Z</time>
      </trkpt>
      <trkpt lat="49.05378" lon="7.33934">
        <ele>269.31</ele>
        <time>2021-07-21T17:02:29Z</time>
      </trkpt>
      <trkpt lat="49.05388" lon="7.33942">
        <ele>269.31</ele>
        <time>2021-07-21T17:02:33Z</time>
      </trkpt>
      <trkpt lat="49.05392" lon="7.33945">
        <ele>269.31</ele>
        <time>2021-07-21T17:02:34Z</time>
      </trkpt>
      <trkpt lat="49.05441" lon="7.34031">
        <ele>274.59</ele>
        <time>2021-07-21T17:02:44Z</time>
      </trkpt>
      <trkpt lat="49.05525" lon="7.34145">
        <ele>287.09</ele>
        <time>2021-07-21T17:02:55Z</time>
      </trkpt>
      <trkpt lat="49.05543" lon="7.34164">
        <ele>289.97</ele>
        <time>2021-07-21T17:02:57Z</time>
      </trkpt>
      <trkpt lat="49.0555" lon="7.34174">
        <ele>291.42</ele>
        <time>2021-07-21T17:02:58Z</time>
      </trkpt>
      <trkpt lat="49.05558" lon="7.34184">
        <ele>291.9</ele>
        <time>2021-07-21T17:02:59Z</time>
      </trkpt>
      <trkpt lat="49.05562" lon="7.34196">
        <ele>292.38</ele>
        <time>2021-07-21T17:03:00Z</time>
      </trkpt>
      <trkpt lat="49.05566" lon="7.34209">
        <ele>293.82</ele>
        <time>2021-07-21T17:03:01Z</time>
      </trkpt>
      <trkpt lat="49.05571" lon="7.34223">
        <ele>294.3</ele>
        <time>2021-07-21T17:03:02Z</time>
      </trkpt>
      <trkpt lat="49.05575" lon="7.34236">
        <ele>295.26</ele>
        <time>2021-07-21T17:03:03Z</time>
      </trkpt>
      <trkpt lat="49.05579" lon="7.34295">
        <ele>301.51</ele>
        <time>2021-07-21T17:03:07Z</time>
      </trkpt>
      <trkpt lat="49.0558" lon="7.34312">
        <ele>303.43</ele>
        <time>2021-07-21T17:03:08Z</time>
      </trkpt>
      <trkpt lat="49.05569" lon="7.34386">
        <ele>310.16</ele>
        <time>2021-07-21T17:03:13Z</time>
      </trkpt>
      <trkpt lat="49.05567" lon="7.344">
        <ele>311.12</ele>
        <time>2021-07-21T17:03:14Z</time>
      </trkpt>
      <trkpt lat="49.05563" lon="7.34414">
        <ele>312.09</ele>
        <time>2021-07-21T17:03:15Z</time>
      </trkpt>
      <trkpt lat="49.05558" lon="7.34424">
        <ele>313.05</ele>
        <time>2021-07-21T17:03:16Z</time>
      </trkpt>
      <trkpt lat="49.05546" lon="7.34439">
        <ele>313.53</ele>
        <time>2021-07-21T17:03:17Z</time>
      </trkpt>
      <trkpt lat="49.05546" lon="7.34439">
        <ele>314.49</ele>
        <time>2021-07-21T17:03:18Z</time>
      </trkpt>
      <trkpt lat="49.0554" lon="7.34446">
        <ele>315.45</ele>
        <time>2021-07-21T17:03:19Z</time>
      </trkpt>
      <trkpt lat="49.05532" lon="7.34451">
        <ele>316.89</ele>
        <time>2021-07-21T17:03:20Z</time>
      </trkpt>
      <trkpt lat="49.05523" lon="7.34455">
        <ele>318.33</ele>
        <time>2021-07-21T17:03:21Z</time>
      </trkpt>
      <trkpt lat="49.05515" lon="7.34458">
        <ele>319.3</ele>
        <time>2021-07-21T17:03:22Z</time>
      </trkpt>
      <trkpt lat="49.05505" lon="7.34459">
        <ele>320.74</ele>
        <time>2021-07-21T17:03:23Z</time>
      </trkpt>
      <trkpt lat="49.05495" lon="7.34459">
        <ele>322.66</ele>
        <time>2021-07-21T17:03:24Z</time>
      </trkpt>
      <trkpt lat="49.05485" lon="7.34459">
        <ele>324.1</ele>
        <time>2021-07-21T17:03:25Z</time>
      </trkpt>
      <trkpt lat="49.05458" lon="7.34458">
        <ele>327.95</ele>
        <time>2021-07-21T17:03:28Z</time>
      </trkpt>
      <trkpt lat="49.05449" lon="7.34458">
        <ele>329.39</ele>
        <time>2021-07-21T17:03:29Z</time>
      </trkpt>
      <trkpt lat="49.05441" lon="7.34463">
        <ele>330.83</ele>
        <time>2021-07-21T17:03:30Z</time>
      </trkpt>
      <trkpt lat="49.05431" lon="7.34468">
        <ele>330.35</ele>
        <time>2021-07-21T17:03:31Z</time>
      </trkpt>
      <trkpt lat="49.0542" lon="7.34475">
        <ele>329.87</ele>
        <time>2021-07-21T17:03:32Z</time>
      </trkpt>
      <trkpt lat="49.05411" lon="7.34485">
        <ele>329.39</ele>
        <time>2021-07-21T17:03:33Z</time>
      </trkpt>
      <trkpt lat="49.05402" lon="7.34498">
        <ele>329.87</ele>
        <time>2021-07-21T17:03:34Z</time>
      </trkpt>
      <trkpt lat="49.05321" lon="7.34627">
        <ele>336.6</ele>
        <time>2021-07-21T17:03:44Z</time>
      </trkpt>
      <trkpt lat="49.05222" lon="7.3481">
        <ele>352.94</ele>
        <time>2021-07-21T17:03:57Z</time>
      </trkpt>
      <trkpt lat="49.05209" lon="7.34843">
        <ele>353.9</ele>
        <time>2021-07-21T17:03:59Z</time>
      </trkpt>
      <trkpt lat="49.05203" lon="7.3486">
        <ele>354.86</ele>
        <time>2021-07-21T17:04:00Z</time>
      </trkpt>
      <trkpt lat="49.05194" lon="7.34901">
        <ele>356.79</ele>
        <time>2021-07-21T17:04:01Z</time>
      </trkpt>
      <trkpt lat="49.0518" lon="7.35084">
        <ele>371.21</ele>
        <time>2021-07-21T17:04:11Z</time>
      </trkpt>
      <trkpt lat="49.05199" lon="7.35349">
        <ele>376.49</ele>
        <time>2021-07-21T17:04:23Z</time>
      </trkpt>
      <trkpt lat="49.0524" lon="7.35729">
        <ele>376.01</ele>
        <time>2021-07-21T17:04:37Z</time>
      </trkpt>
      <trkpt lat="49.05304" lon="7.36318">
        <ele>381.3</ele>
        <time>2021-07-21T17:04:57Z</time>
      </trkpt>
      <trkpt lat="49.05359" lon="7.36829">
        <ele>390.91</ele>
        <time>2021-07-21T17:05:15Z</time>
      </trkpt>
      <trkpt lat="49.05406" lon="7.37223">
        <ele>397.64</ele>
        <time>2021-07-21T17:05:31Z</time>
      </trkpt>
      <trkpt lat="49.05413" lon="7.37245">
        <ele>397.16</ele>
        <time>2021-07-21T17:05:32Z</time>
      </trkpt>
      <trkpt lat="49.05421" lon="7.37266">
        <ele>396.68</ele>
        <time>2021-07-21T17:05:33Z</time>
      </trkpt>
      <trkpt lat="49.05431" lon="7.37283">
        <ele>396.68</ele>
        <time>2021-07-21T17:05:34Z</time>
      </trkpt>
      <trkpt lat="49.05443" lon="7.373">
        <ele>396.68</ele>
        <time>2021-07-21T17:05:35Z</time>
      </trkpt>
      <trkpt lat="49.05568" lon="7.3747">
        <ele>398.6</ele>
        <time>2021-07-21T17:05:47Z</time>
      </trkpt>
      <trkpt lat="49.05658" lon="7.37587">
        <ele>399.57</ele>
        <time>2021-07-21T17:05:58Z</time>
      </trkpt>
      <trkpt lat="49.05665" lon="7.37596">
        <ele>400.05</ele>
        <time>2021-07-21T17:06:06Z</time>
      </trkpt>
      <trkpt lat="49.05671" lon="7.37604">
        <ele>400.05</ele>
        <time>2021-07-21T17:06:19Z</time>
      </trkpt>
      <trkpt lat="49.05675" lon="7.3761">
        <ele>400.05</ele>
        <time>2021-07-21T17:06:20Z</time>
      </trkpt>
      <trkpt lat="49.05675" lon="7.3761">
        <ele>400.05</ele>
        <time>2021-07-21T17:06:21Z</time>
      </trkpt>
      <trkpt lat="49.05678" lon="7.37614">
        <ele>400.05</ele>
        <time>2021-07-21T17:06:28Z</time>
      </trkpt>
      <trkpt lat="49.0568" lon="7.37617">
        <ele>400.05</ele>
        <time>2021-07-21T17:06:29Z</time>
      </trkpt>
      <trkpt lat="49.05684" lon="7.37622">
        <ele>400.05</ele>
        <time>2021-07-21T17:06:30Z</time>
      </trkpt>
      <trkpt lat="49.05732" lon="7.37689">
        <ele>400.05</ele>
        <time>2021-07-21T17:06:38Z</time>
      </trkpt>
      <trkpt lat="49.05841" lon="7.37841">
        <ele>402.93</ele>
        <time>2021-07-21T17:06:50Z</time>
      </trkpt>
      <trkpt lat="49.05975" lon="7.38024">
        <ele>405.81</ele>
        <time>2021-07-21T17:07:04Z</time>
      </trkpt>
      <trkpt lat="49.06054" lon="7.38163">
        <ele>407.26</ele>
        <time>2021-07-21T17:07:14Z</time>
      </trkpt>
      <trkpt lat="49.06057" lon="7.38178">
        <ele>408.22</ele>
        <time>2021-07-21T17:07:15Z</time>
      </trkpt>
      <trkpt lat="49.06059" lon="7.38194">
        <ele>407.74</ele>
        <time>2021-07-21T17:07:16Z</time>
      </trkpt>
      <trkpt lat="49.06061" lon="7.38212">
        <ele>407.74</ele>
        <time>2021-07-21T17:07:17Z</time>
      </trkpt>
      <trkpt lat="49.06062" lon="7.38229">
        <ele>407.74</ele>
        <time>2021-07-21T17:07:18Z</time>
      </trkpt>
      <trkpt lat="49.06065" lon="7.38506">
        <ele>407.26</ele>
        <time>2021-07-21T17:07:31Z</time>
      </trkpt>
      <trkpt lat="49.06069" lon="7.38884">
        <ele>410.14</ele>
        <time>2021-07-21T17:07:46Z</time>
      </trkpt>
      <trkpt lat="49.06058" lon="7.39">
        <ele>409.66</ele>
        <time>2021-07-21T17:07:52Z</time>
      </trkpt>
      <trkpt lat="49.06057" lon="7.39035">
        <ele>410.14</ele>
        <time>2021-07-21T17:07:59Z</time>
      </trkpt>
      <trkpt lat="49.06057" lon="7.39035">
        <ele>411.1</ele>
        <time>2021-07-21T17:08:31Z</time>
      </trkpt>
      <trkpt lat="49.06058" lon="7.39038">
        <ele>411.1</ele>
        <time>2021-07-21T17:08:32Z</time>
      </trkpt>
      <trkpt lat="49.06063" lon="7.39061">
        <ele>411.58</ele>
        <time>2021-07-21T17:08:39Z</time>
      </trkpt>
      <trkpt lat="49.06063" lon="7.39061">
        <ele>411.58</ele>
        <time>2021-07-21T17:08:59Z</time>
      </trkpt>
      <trkpt lat="49.06063" lon="7.39061">
        <ele>411.58</ele>
        <time>2021-07-21T17:09:01Z</time>
      </trkpt>
      <trkpt lat="49.06068" lon="7.39078">
        <ele>411.58</ele>
        <time>2021-07-21T17:09:02Z</time>
      </trkpt>
      <trkpt lat="49.0607" lon="7.39075">
        <ele>411.1</ele>
        <time>2021-07-21T17:09:03Z</time>
      </trkpt>
      <trkpt lat="49.06064" lon="7.39063">
        <ele>411.1</ele>
        <time>2021-07-21T17:09:04Z</time>
      </trkpt>
      <trkpt lat="49.06064" lon="7.39063">
        <ele>410.62</ele>
        <time>2021-07-21T17:09:05Z</time>
      </trkpt>
      <trkpt lat="49.06061" lon="7.3905">
        <ele>410.62</ele>
        <time>2021-07-21T17:09:06Z</time>
      </trkpt>
      <trkpt lat="49.06061" lon="7.3905">
        <ele>410.62</ele>
        <time>2021-07-21T17:09:07Z</time>
      </trkpt>
      <trkpt lat="49.06059" lon="7.39043">
        <ele>410.62</ele>
        <time>2021-07-21T17:09:08Z</time>
      </trkpt>
      <trkpt lat="49.06057" lon="7.39035">
        <ele>410.62</ele>
        <time>2021-07-21T17:09:09Z</time>
      </trkpt>
      <trkpt lat="49.06055" lon="7.39026">
        <ele>410.62</ele>
        <time>2021-07-21T17:09:10Z</time>
      </trkpt>
      <trkpt lat="49.06056" lon="7.39014">
        <ele>410.62</ele>
        <time>2021-07-21T17:09:11Z</time>
      </trkpt>
      <trkpt lat="49.06057" lon="7.39002">
        <ele>410.62</ele>
        <time>2021-07-21T17:09:12Z</time>
      </trkpt>
      <trkpt lat="49.0606" lon="7.38988">
        <ele>411.1</ele>
        <time>2021-07-21T17:09:13Z</time>
      </trkpt>
      <trkpt lat="49.06069" lon="7.38831">
        <ele>408.22</ele>
        <time>2021-07-21T17:09:21Z</time>
      </trkpt>
      <trkpt lat="49.06066" lon="7.38568">
        <ele>405.81</ele>
        <time>2021-07-21T17:09:31Z</time>
      </trkpt>
      <trkpt lat="49.06061" lon="7.38226">
        <ele>410.14</ele>
        <time>2021-07-21T17:09:43Z</time>
      </trkpt>
      <trkpt lat="49.06061" lon="7.38207">
        <ele>409.66</ele>
        <time>2021-07-21T17:09:44Z</time>
      </trkpt>
      <trkpt lat="49.06058" lon="7.3819">
        <ele>409.66</ele>
        <time>2021-07-21T17:09:45Z</time>
      </trkpt>
      <trkpt lat="49.06055" lon="7.38172">
        <ele>409.18</ele>
        <time>2021-07-21T17:09:46Z</time>
      </trkpt>
      <trkpt lat="49.06052" lon="7.38152">
        <ele>408.7</ele>
        <time>2021-07-21T17:09:47Z</time>
      </trkpt>
      <trkpt lat="49.06044" lon="7.38137">
        <ele>408.7</ele>
        <time>2021-07-21T17:09:48Z</time>
      </trkpt>
      <trkpt lat="49.06036" lon="7.3812">
        <ele>409.18</ele>
        <time>2021-07-21T17:09:49Z</time>
      </trkpt>
      <trkpt lat="49.06027" lon="7.38102">
        <ele>409.18</ele>
        <time>2021-07-21T17:09:50Z</time>
      </trkpt>
      <trkpt lat="49.05931" lon="7.37959">
        <ele>408.22</ele>
        <time>2021-07-21T17:09:59Z</time>
      </trkpt>
      <trkpt lat="49.05807" lon="7.37792">
        <ele>406.29</ele>
        <time>2021-07-21T17:10:12Z</time>
      </trkpt>
      <trkpt lat="49.0575" lon="7.37714">
        <ele>405.81</ele>
        <time>2021-07-21T17:10:23Z</time>
      </trkpt>
      <trkpt lat="49.05684" lon="7.37623">
        <ele>404.85</ele>
        <time>2021-07-21T17:10:33Z</time>
      </trkpt>
      <trkpt lat="49.05681" lon="7.37618">
        <ele>404.37</ele>
        <time>2021-07-21T17:10:34Z</time>
      </trkpt>
      <trkpt lat="49.05675" lon="7.3761">
        <ele>404.37</ele>
        <time>2021-07-21T17:10:35Z</time>
      </trkpt>
      <trkpt lat="49.05675" lon="7.3761">
        <ele>404.37</ele>
        <time>2021-07-21T17:10:36Z</time>
      </trkpt>
      <trkpt lat="49.05676" lon="7.37593">
        <ele>404.37</ele>
        <time>2021-07-21T17:10:37Z</time>
      </trkpt>
      <trkpt lat="49.05678" lon="7.37591">
        <ele>403.89</ele>
        <time>2021-07-21T17:10:38Z</time>
      </trkpt>
      <trkpt lat="49.05679" lon="7.37588">
        <ele>403.89</ele>
        <time>2021-07-21T17:10:39Z</time>
      </trkpt>
      <trkpt lat="49.05681" lon="7.37585">
        <ele>403.89</ele>
        <time>2021-07-21T17:10:40Z</time>
      </trkpt>
      <trkpt lat="49.05682" lon="7.37583">
        <ele>403.41</ele>
        <time>2021-07-21T17:10:55Z</time>
      </trkpt>
      <trkpt lat="49.05682" lon="7.37583">
        <ele>403.41</ele>
        <time>2021-07-21T17:12:04Z</time>
      </trkpt>
      <trkpt lat="49.05682" lon="7.37583">
        <ele>403.41</ele>
        <time>2021-07-21T17:12:09Z</time>
      </trkpt>
      <trkpt lat="49.05685" lon="7.37578">
        <ele>403.41</ele>
        <time>2021-07-21T17:12:10Z</time>
      </trkpt>
      <trkpt lat="49.05684" lon="7.37568">
        <ele>402.93</ele>
        <time>2021-07-21T17:12:21Z</time>
      </trkpt>
      <trkpt lat="49.05684" lon="7.37568">
        <ele>402.93</ele>
        <time>2021-07-21T17:12:23Z</time>
      </trkpt>
      <trkpt lat="49.05687" lon="7.37575">
        <ele>403.41</ele>
        <time>2021-07-21T17:12:26Z</time>
      </trkpt>
      <trkpt lat="49.05658" lon="7.37586">
        <ele>403.89</ele>
        <time>2021-07-21T17:12:36Z</time>
      </trkpt>
      <trkpt lat="49.05654" lon="7.37581">
        <ele>403.89</ele>
        <time>2021-07-21T17:12:37Z</time>
      </trkpt>
      <trkpt lat="49.05599" lon="7.37508">
        <ele>403.89</ele>
        <time>2021-07-21T17:12:46Z</time>
      </trkpt>
      <trkpt lat="49.05486" lon="7.37358">
        <ele>402.93</ele>
        <time>2021-07-21T17:12:58Z</time>
      </trkpt>
      <trkpt lat="49.0542" lon="7.37263">
        <ele>402.93</ele>
        <time>2021-07-21T17:13:05Z</time>
      </trkpt>
      <trkpt lat="49.05412" lon="7.37243">
        <ele>402.93</ele>
        <time>2021-07-21T17:13:06Z</time>
      </trkpt>
      <trkpt lat="49.05406" lon="7.37224">
        <ele>402.93</ele>
        <time>2021-07-21T17:13:07Z</time>
      </trkpt>
      <trkpt lat="49.05401" lon="7.37204">
        <ele>402.93</ele>
        <time>2021-07-21T17:13:08Z</time>
      </trkpt>
      <trkpt lat="49.05397" lon="7.37183">
        <ele>402.93</ele>
        <time>2021-07-21T17:13:09Z</time>
      </trkpt>
      <trkpt lat="49.05395" lon="7.37161">
        <ele>402.45</ele>
        <time>2021-07-21T17:13:10Z</time>
      </trkpt>
      <trkpt lat="49.05364" lon="7.36876">
        <ele>396.2</ele>
        <time>2021-07-21T17:13:21Z</time>
      </trkpt>
      <trkpt lat="49.05323" lon="7.36492">
        <ele>390.43</ele>
        <time>2021-07-21T17:13:33Z</time>
      </trkpt>
      <trkpt lat="49.05266" lon="7.35966">
        <ele>380.82</ele>
        <time>2021-07-21T17:13:48Z</time>
      </trkpt>
      <trkpt lat="49.05204" lon="7.3539">
        <ele>381.3</ele>
        <time>2021-07-21T17:14:06Z</time>
      </trkpt>
      <trkpt lat="49.05181" lon="7.35036">
        <ele>373.13</ele>
        <time>2021-07-21T17:14:18Z</time>
      </trkpt>
      <trkpt lat="49.05203" lon="7.34858">
        <ele>362.07</ele>
        <time>2021-07-21T17:14:24Z</time>
      </trkpt>
      <trkpt lat="49.05211" lon="7.34838">
        <ele>360.63</ele>
        <time>2021-07-21T17:14:25Z</time>
      </trkpt>
      <trkpt lat="49.05218" lon="7.34819">
        <ele>358.71</ele>
        <time>2021-07-21T17:14:26Z</time>
      </trkpt>
      <trkpt lat="49.05227" lon="7.348">
        <ele>357.27</ele>
        <time>2021-07-21T17:14:27Z</time>
      </trkpt>
      <trkpt lat="49.05237" lon="7.34781">
        <ele>355.34</ele>
        <time>2021-07-21T17:14:28Z</time>
      </trkpt>
      <trkpt lat="49.0535" lon="7.34575">
        <ele>339.48</ele>
        <time>2021-07-21T17:14:38Z</time>
      </trkpt>
      <trkpt lat="49.05412" lon="7.34484">
        <ele>328.91</ele>
        <time>2021-07-21T17:14:44Z</time>
      </trkpt>
      <trkpt lat="49.05423" lon="7.34473">
        <ele>326.5</ele>
        <time>2021-07-21T17:14:45Z</time>
      </trkpt>
      <trkpt lat="49.05436" lon="7.34466">
        <ele>324.58</ele>
        <time>2021-07-21T17:14:46Z</time>
      </trkpt>
      <trkpt lat="49.05449" lon="7.34458">
        <ele>323.62</ele>
        <time>2021-07-21T17:14:47Z</time>
      </trkpt>
      <trkpt lat="49.05464" lon="7.34458">
        <ele>321.7</ele>
        <time>2021-07-21T17:14:48Z</time>
      </trkpt>
      <trkpt lat="49.05477" lon="7.34459">
        <ele>319.3</ele>
        <time>2021-07-21T17:14:49Z</time>
      </trkpt>
      <trkpt lat="49.05503" lon="7.34459">
        <ele>317.85</ele>
        <time>2021-07-21T17:14:51Z</time>
      </trkpt>
      <trkpt lat="49.05515" lon="7.34458">
        <ele>317.37</ele>
        <time>2021-07-21T17:14:52Z</time>
      </trkpt>
      <trkpt lat="49.05527" lon="7.34453">
        <ele>316.89</ele>
        <time>2021-07-21T17:14:53Z</time>
      </trkpt>
      <trkpt lat="49.05537" lon="7.34449">
        <ele>315.93</ele>
        <time>2021-07-21T17:14:54Z</time>
      </trkpt>
      <trkpt lat="49.05546" lon="7.34439">
        <ele>314.01</ele>
        <time>2021-07-21T17:14:55Z</time>
      </trkpt>
      <trkpt lat="49.05555" lon="7.34429">
        <ele>313.05</ele>
        <time>2021-07-21T17:14:56Z</time>
      </trkpt>
      <trkpt lat="49.05562" lon="7.34416">
        <ele>312.09</ele>
        <time>2021-07-21T17:14:57Z</time>
      </trkpt>
      <trkpt lat="49.05566" lon="7.34404">
        <ele>310.16</ele>
        <time>2021-07-21T17:14:58Z</time>
      </trkpt>
      <trkpt lat="49.05569" lon="7.34387">
        <ele>307.76</ele>
        <time>2021-07-21T17:14:59Z</time>
      </trkpt>
      <trkpt lat="49.05572" lon="7.3437">
        <ele>306.32</ele>
        <time>2021-07-21T17:15:00Z</time>
      </trkpt>
      <trkpt lat="49.0558" lon="7.34313">
        <ele>301.03</ele>
        <time>2021-07-21T17:15:03Z</time>
      </trkpt>
      <trkpt lat="49.05579" lon="7.34292">
        <ele>299.59</ele>
        <time>2021-07-21T17:15:04Z</time>
      </trkpt>
      <trkpt lat="49.05579" lon="7.34272">
        <ele>298.15</ele>
        <time>2021-07-21T17:15:05Z</time>
      </trkpt>
      <trkpt lat="49.05578" lon="7.34254">
        <ele>297.18</ele>
        <time>2021-07-21T17:15:06Z</time>
      </trkpt>
      <trkpt lat="49.05575" lon="7.34237">
        <ele>296.7</ele>
        <time>2021-07-21T17:15:07Z</time>
      </trkpt>
      <trkpt lat="49.0557" lon="7.34222">
        <ele>294.78</ele>
        <time>2021-07-21T17:15:08Z</time>
      </trkpt>
      <trkpt lat="49.05565" lon="7.34205">
        <ele>293.34</ele>
        <time>2021-07-21T17:15:09Z</time>
      </trkpt>
      <trkpt lat="49.0556" lon="7.34189">
        <ele>291.42</ele>
        <time>2021-07-21T17:15:10Z</time>
      </trkpt>
      <trkpt lat="49.0555" lon="7.34174">
        <ele>288.53</ele>
        <time>2021-07-21T17:15:11Z</time>
      </trkpt>
      <trkpt lat="49.0554" lon="7.34161">
        <ele>286.61</ele>
        <time>2021-07-21T17:15:12Z</time>
      </trkpt>
      <trkpt lat="49.05441" lon="7.34031">
        <ele>268.83</ele>
        <time>2021-07-21T17:15:21Z</time>
      </trkpt>
      <trkpt lat="49.0541" lon="7.33975">
        <ele>265.46</ele>
        <time>2021-07-21T17:15:25Z</time>
      </trkpt>
      <trkpt lat="49.05405" lon="7.33964">
        <ele>265.94</ele>
        <time>2021-07-21T17:15:26Z</time>
      </trkpt>
      <trkpt lat="49.05397" lon="7.33938">
        <ele>265.46</ele>
        <time>2021-07-21T17:15:27Z</time>
      </trkpt>
      <trkpt lat="49.05397" lon="7.33924">
        <ele>265.46</ele>
        <time>2021-07-21T17:15:28Z</time>
      </trkpt>
      <trkpt lat="49.05397" lon="7.33924">
        <ele>266.42</ele>
        <time>2021-07-21T17:15:29Z</time>
      </trkpt>
      <trkpt lat="49.05396" lon="7.33911">
        <ele>265.94</ele>
        <time>2021-07-21T17:15:30Z</time>
      </trkpt>
      <trkpt lat="49.05395" lon="7.33898">
        <ele>265.94</ele>
        <time>2021-07-21T17:15:31Z</time>
      </trkpt>
      <trkpt lat="49.05394" lon="7.33875">
        <ele>266.42</ele>
        <time>2021-07-21T17:15:32Z</time>
      </trkpt>
      <trkpt lat="49.05394" lon="7.33875">
        <ele>266.42</ele>
        <time>2021-07-21T17:15:33Z</time>
      </trkpt>
      <trkpt lat="49.05395" lon="7.3386">
        <ele>266.9</ele>
        <time>2021-07-21T17:15:34Z</time>
      </trkpt>
      <trkpt lat="49.05403" lon="7.33846">
        <ele>266.9</ele>
        <time>2021-07-21T17:15:35Z</time>
      </trkpt>
      <trkpt lat="49.05412" lon="7.33795">
        <ele>268.35</ele>
        <time>2021-07-21T17:15:40Z</time>
      </trkpt>
      <trkpt lat="49.05415" lon="7.33774">
        <ele>268.83</ele>
        <time>2021-07-21T17:15:43Z</time>
      </trkpt>
      <trkpt lat="49.05415" lon="7.33774">
        <ele>268.83</ele>
        <time>2021-07-21T17:15:44Z</time>
      </trkpt>
      <trkpt lat="49.05416" lon="7.33768">
        <ele>268.83</ele>
        <time>2021-07-21T17:15:45Z</time>
      </trkpt>
      <trkpt lat="49.05416" lon="7.33768">
        <ele>269.31</ele>
        <time>2021-07-21T17:15:58Z</time>
      </trkpt>
    </trkseg>
  </trk>
</gpx>